Huy, Belgium
Current Conditions -  °F | °C
As of 4:50 PM on Tuesday 21 Oct 2014 (Local Time) from EBLG Reporting Station
Broken Clouds Broken Clouds  
Wind Chill: 52°   Ceiling: 2000
Heat Index: 52°   Visibility: 6mi
Dew Point: 46°   Wind: 20mph
Humidity: 82%   Direction: 280°W
Pressure: 29.62"   Gusts: NA
Location:  50.52°N, 5.23°E
Report Text: EBLG 211450Z 28017KT 240V300 9999 FEW011 BKN020 11/08 Q1003 RESHRA BECMG 27020G35KT TEMPO 3000 SHRA BKN010
Loading
Personal Weather Stations






























Interactive Weather Map
Tropical Storm Tracking
New forecast layout! Learn more

10-Day Weather Forecast

Advertisements
Track Severe Weather on mobile